sensor_id;sensor_type;location;lat;lon;timestamp;temperature;humidity
74364;DHT22;62797;49.740;10.154;2022-12-07T00:00:38;3.10;69.40
74364;DHT22;62797;49.740;10.154;2022-12-07T00:03:04;3.00;69.40
74364;DHT22;62797;49.740;10.154;2022-12-07T00:05:30;3.00;69.40
74364;DHT22;62797;49.740;10.154;2022-12-07T00:07:55;2.80;69.40
74364;DHT22;62797;49.740;10.154;2022-12-07T00:10:21;2.70;70.10
74364;DHT22;62797;49.740;10.154;2022-12-07T00:12:46;2.80;70.60
74364;DHT22;62797;49.740;10.154;2022-12-07T00:15:12;2.80;70.20
74364;DHT22;62797;49.740;10.154;2022-12-07T00:17:37;2.90;69.90
74364;DHT22;62797;49.740;10.154;2022-12-07T00:20:04;2.80;69.70
74364;DHT22;62797;49.740;10.154;2022-12-07T00:22:29;2.80;69.70
74364;DHT22;62797;49.740;10.154;2022-12-07T00:24:55;2.90;70.00
74364;DHT22;62797;49.740;10.154;2022-12-07T00:27:21;2.90;69.40
74364;DHT22;62797;49.740;10.154;2022-12-07T00:29:46;2.90;69.80
74364;DHT22;62797;49.740;10.154;2022-12-07T00:32:12;2.90;69.50
74364;DHT22;62797;49.740;10.154;2022-12-07T00:34:37;2.90;68.80
74364;DHT22;62797;49.740;10.154;2022-12-07T00:37:03;2.90;69.20
74364;DHT22;62797;49.740;10.154;2022-12-07T00:39:29;2.90;69.60
74364;DHT22;62797;49.740;10.154;2022-12-07T00:41:55;2.90;69.40
74364;DHT22;62797;49.740;10.154;2022-12-07T00:44:20;2.90;70.20
74364;DHT22;62797;49.740;10.154;2022-12-07T00:46:46;2.90;69.60
74364;DHT22;62797;49.740;10.154;2022-12-07T00:49:12;2.90;68.90
74364;DHT22;62797;49.740;10.154;2022-12-07T00:51:37;2.90;69.00
74364;DHT22;62797;49.740;10.154;2022-12-07T00:54:03;2.90;68.50
74364;DHT22;62797;49.740;10.154;2022-12-07T00:56:29;2.90;69.10
74364;DHT22;62797;49.740;10.154;2022-12-07T00:59:00;2.90;69.00
74364;DHT22;62797;49.740;10.154;2022-12-07T01:01:28;3.00;68.20
74364;DHT22;62797;49.740;10.154;2022-12-07T01:03:54;3.00;68.20
74364;DHT22;62797;49.740;10.154;2022-12-07T01:06:22;2.90;68.30
74364;DHT22;62797;49.740;10.154;2022-12-07T01:08:48;2.90;67.70
74364;DHT22;62797;49.740;10.154;2022-12-07T01:11:16;2.90;68.00
74364;DHT22;62797;49.740;10.154;2022-12-07T01:13:42;2.90;67.90
74364;DHT22;62797;49.740;10.154;2022-12-07T01:16:11;2.80;68.20
74364;DHT22;62797;49.740;10.154;2022-12-07T01:18:38;2.90;68.20
74364;DHT22;62797;49.740;10.154;2022-12-07T01:21:16;2.90;68.20
74364;DHT22;62797;49.740;10.154;2022-12-07T01:23:43;2.90;67.90
74364;DHT22;62797;49.740;10.154;2022-12-07T01:26:11;2.90;68.20
74364;DHT22;62797;49.740;10.154;2022-12-07T01:28:37;2.90;67.70
74364;DHT22;62797;49.740;10.154;2022-12-07T01:31:09;2.90;67.50
74364;DHT22;62797;49.740;10.154;2022-12-07T01:33:40;2.90;67.50
74364;DHT22;62797;49.740;10.154;2022-12-07T01:36:08;2.90;66.60
74364;DHT22;62797;49.740;10.154;2022-12-07T01:38:38;2.80;67.00
74364;DHT22;62797;49.740;10.154;2022-12-07T01:41:04;2.70;67.00
74364;DHT22;62797;49.740;10.154;2022-12-07T01:43:31;2.70;67.80
74364;DHT22;62797;49.740;10.154;2022-12-07T01:45:57;2.60;66.80
74364;DHT22;62797;49.740;10.154;2022-12-07T01:48:39;2.70;66.80
74364;DHT22;62797;49.740;10.154;2022-12-07T01:51:11;2.60;67.20
74364;DHT22;62797;49.740;10.154;2022-12-07T01:53:43;2.70;67.00
74364;DHT22;62797;49.740;10.154;2022-12-07T01:56:15;2.60;66.60
74364;DHT22;62797;49.740;10.154;2022-12-07T01:58:42;2.70;66.50
74364;DHT22;62797;49.740;10.154;2022-12-07T02:01:08;2.60;66.60
74364;DHT22;62797;49.740;10.154;2022-12-07T02:03:40;2.60;66.60
74364;DHT22;62797;49.740;10.154;2022-12-07T02:06:07;2.50;66.20
74364;DHT22;62797;49.740;10.154;2022-12-07T02:08:33;2.60;66.60
74364;DHT22;62797;49.740;10.154;2022-12-07T02:11:00;2.60;66.90
74364;DHT22;62797;49.740;10.154;2022-12-07T02:13:29;2.50;67.20
74364;DHT22;62797;49.740;10.154;2022-12-07T02:24:24;2.60;66.20
74364;DHT22;62797;49.740;10.154;2022-12-07T02:30:17;2.60;66.40
74364;DHT22;62797;49.740;10.154;2022-12-07T02:33:14;2.60;66.50
74364;DHT22;62797;49.740;10.154;2022-12-07T02:35:44;2.60;66.50
74364;DHT22;62797;49.740;10.154;2022-12-07T02:38:18;2.60;67.40
74364;DHT22;62797;49.740;10.154;2022-12-07T02:40:51;2.60;67.10
74364;DHT22;62797;49.740;10.154;2022-12-07T02:43:28;2.70;67.50
74364;DHT22;62797;49.740;10.154;2022-12-07T02:45:55;2.70;66.70
74364;DHT22;62797;49.740;10.154;2022-12-07T02:48:23;2.60;66.60
74364;DHT22;62797;49.740;10.154;2022-12-07T02:50:51;2.60;67.40
74364;DHT22;62797;49.740;10.154;2022-12-07T02:53:38;2.60;67.40
74364;DHT22;62797;49.740;10.154;2022-12-07T03:07:26;2.80;67.30
74364;DHT22;62797;49.740;10.154;2022-12-07T03:09:59;2.80;67.40
74364;DHT22;62797;49.740;10.154;2022-12-07T03:12:39;2.70;66.80
74364;DHT22;62797;49.740;10.154;2022-12-07T03:15:12;2.80;66.90
74364;DHT22;62797;49.740;10.154;2022-12-07T03:17:41;2.70;67.10
74364;DHT22;62797;49.740;10.154;2022-12-07T03:20:11;2.70;67.10
74364;DHT22;62797;49.740;10.154;2022-12-07T03:22:40;2.70;66.80
74364;DHT22;62797;49.740;10.154;2022-12-07T03:25:10;2.70;67.00
74364;DHT22;62797;49.740;10.154;2022-12-07T03:27:48;2.80;67.10
74364;DHT22;62797;49.740;10.154;2022-12-07T03:30:20;2.80;66.50
74364;DHT22;62797;49.740;10.154;2022-12-07T03:32:59;2.80;66.70
74364;DHT22;62797;49.740;10.154;2022-12-07T03:35:34;2.80;66.20
74364;DHT22;62797;49.740;10.154;2022-12-07T03:38:13;2.70;67.70
74364;DHT22;62797;49.740;10.154;2022-12-07T03:43:12;2.80;65.60
74364;DHT22;62797;49.740;10.154;2022-12-07T03:45:43;2.70;65.90
74364;DHT22;62797;49.740;10.154;2022-12-07T03:53:54;2.80;65.80
74364;DHT22;62797;49.740;10.154;2022-12-07T03:56:24;2.70;65.50
74364;DHT22;62797;49.740;10.154;2022-12-07T03:58:52;2.70;65.90
74364;DHT22;62797;49.740;10.154;2022-12-07T04:01:18;2.80;65.40
74364;DHT22;62797;49.740;10.154;2022-12-07T04:03:43;2.70;65.60
74364;DHT22;62797;49.740;10.154;2022-12-07T04:06:09;2.70;66.00
74364;DHT22;62797;49.740;10.154;2022-12-07T04:08:35;2.80;65.60
74364;DHT22;62797;49.740;10.154;2022-12-07T04:11:01;2.80;65.60
74364;DHT22;62797;49.740;10.154;2022-12-07T04:13:27;2.80;65.50
74364;DHT22;62797;49.740;10.154;2022-12-07T04:15:52;2.80;65.80
74364;DHT22;62797;49.740;10.154;2022-12-07T04:18:18;2.80;65.70
74364;DHT22;62797;49.740;10.154;2022-12-07T04:20:45;2.70;64.60
74364;DHT22;62797;49.740;10.154;2022-12-07T04:23:10;2.80;64.70
74364;DHT22;62797;49.740;10.154;2022-12-07T04:25:36;2.80;65.20
74364;DHT22;62797;49.740;10.154;2022-12-07T04:28:01;2.80;64.90
74364;DHT22;62797;49.740;10.154;2022-12-07T04:30:27;2.80;64.60
74364;DHT22;62797;49.740;10.154;2022-12-07T04:32:52;2.80;64.90
74364;DHT22;62797;49.740;10.154;2022-12-07T04:35:18;2.80;65.00
74364;DHT22;62797;49.740;10.154;2022-12-07T04:37:43;2.80;64.90
74364;DHT22;62797;49.740;10.154;2022-12-07T04:40:09;2.80;65.00
74364;DHT22;62797;49.740;10.154;2022-12-07T04:42:36;2.80;64.90
74364;DHT22;62797;49.740;10.154;2022-12-07T04:45:02;2.70;65.30
74364;DHT22;62797;49.740;10.154;2022-12-07T04:47:28;2.80;65.00
74364;DHT22;62797;49.740;10.154;2022-12-07T04:49:53;2.70;64.70
74364;DHT22;62797;49.740;10.154;2022-12-07T04:52:19;2.80;64.80
74364;DHT22;62797;49.740;10.154;2022-12-07T04:54:45;2.80;65.10
74364;DHT22;62797;49.740;10.154;2022-12-07T04:57:10;2.70;65.30
74364;DHT22;62797;49.740;10.154;2022-12-07T04:59:36;2.70;63.60
74364;DHT22;62797;49.740;10.154;2022-12-07T05:02:01;2.70;65.00
74364;DHT22;62797;49.740;10.154;2022-12-07T05:04:27;2.70;65.10
74364;DHT22;62797;49.740;10.154;2022-12-07T05:06:52;2.80;64.90
74364;DHT22;62797;49.740;10.154;2022-12-07T05:09:18;2.70;64.50
74364;DHT22;62797;49.740;10.154;2022-12-07T05:11:44;2.70;65.00
74364;DHT22;62797;49.740;10.154;2022-12-07T05:14:16;2.70;64.80
74364;DHT22;62797;49.740;10.154;2022-12-07T05:16:43;2.70;64.40
74364;DHT22;62797;49.740;10.154;2022-12-07T05:19:09;2.70;64.90
74364;DHT22;62797;49.740;10.154;2022-12-07T05:21:36;2.70;64.60
74364;DHT22;62797;49.740;10.154;2022-12-07T05:24:02;2.70;64.70
74364;DHT22;62797;49.740;10.154;2022-12-07T05:26:28;2.70;64.90
74364;DHT22;62797;49.740;10.154;2022-12-07T05:28:55;2.70;64.60
74364;DHT22;62797;49.740;10.154;2022-12-07T05:31:21;2.60;64.80
74364;DHT22;62797;49.740;10.154;2022-12-07T05:33:47;2.60;65.50
74364;DHT22;62797;49.740;10.154;2022-12-07T05:36:13;2.70;64.80
74364;DHT22;62797;49.740;10.154;2022-12-07T05:38:39;2.70;64.00
74364;DHT22;62797;49.740;10.154;2022-12-07T05:41:06;2.70;64.30
74364;DHT22;62797;49.740;10.154;2022-12-07T05:43:32;2.70;64.40
74364;DHT22;62797;49.740;10.154;2022-12-07T05:45:58;2.70;64.30
74364;DHT22;62797;49.740;10.154;2022-12-07T05:48:25;2.70;63.70
74364;DHT22;62797;49.740;10.154;2022-12-07T05:50:51;2.70;63.80
74364;DHT22;62797;49.740;10.154;2022-12-07T05:53:17;2.70;63.70
74364;DHT22;62797;49.740;10.154;2022-12-07T05:55:43;2.60;64.30
74364;DHT22;62797;49.740;10.154;2022-12-07T05:58:09;2.60;65.00
74364;DHT22;62797;49.740;10.154;2022-12-07T06:00:56;2.60;64.60
74364;DHT22;62797;49.740;10.154;2022-12-07T06:03:21;2.60;64.00
74364;DHT22;62797;49.740;10.154;2022-12-07T06:05:47;2.70;64.20
74364;DHT22;62797;49.740;10.154;2022-12-07T06:08:13;2.60;64.10
74364;DHT22;62797;49.740;10.154;2022-12-07T06:10:40;2.60;64.80
74364;DHT22;62797;49.740;10.154;2022-12-07T06:13:06;2.60;64.50
74364;DHT22;62797;49.740;10.154;2022-12-07T06:15:31;2.60;64.70
74364;DHT22;62797;49.740;10.154;2022-12-07T06:17:57;2.60;65.00
74364;DHT22;62797;49.740;10.154;2022-12-07T06:20:22;2.50;64.40
74364;DHT22;62797;49.740;10.154;2022-12-07T06:22:48;2.60;65.40
74364;DHT22;62797;49.740;10.154;2022-12-07T06:25:13;2.60;65.60
74364;DHT22;62797;49.740;10.154;2022-12-07T06:27:39;2.60;65.50
74364;DHT22;62797;49.740;10.154;2022-12-07T06:30:05;2.60;65.30
74364;DHT22;62797;49.740;10.154;2022-12-07T06:32:33;2.60;65.70
74364;DHT22;62797;49.740;10.154;2022-12-07T06:34:59;2.50;65.50
74364;DHT22;62797;49.740;10.154;2022-12-07T06:37:25;2.60;66.00
74364;DHT22;62797;49.740;10.154;2022-12-07T06:39:50;2.60;65.80
74364;DHT22;62797;49.740;10.154;2022-12-07T06:42:16;2.60;65.90
74364;DHT22;62797;49.740;10.154;2022-12-07T06:44:41;2.60;66.20
74364;DHT22;62797;49.740;10.154;2022-12-07T06:47:08;2.60;65.80
74364;DHT22;62797;49.740;10.154;2022-12-07T06:49:35;2.60;65.90
74364;DHT22;62797;49.740;10.154;2022-12-07T06:52:00;2.60;66.20
74364;DHT22;62797;49.740;10.154;2022-12-07T06:54:26;2.60;66.60
74364;DHT22;62797;49.740;10.154;2022-12-07T06:56:51;2.60;66.40
74364;DHT22;62797;49.740;10.154;2022-12-07T06:59:17;2.70;67.00
74364;DHT22;62797;49.740;10.154;2022-12-07T07:01:42;2.70;65.30
74364;DHT22;62797;49.740;10.154;2022-12-07T07:04:08;2.60;66.40
74364;DHT22;62797;49.740;10.154;2022-12-07T07:06:33;2.70;66.70
74364;DHT22;62797;49.740;10.154;2022-12-07T07:08:59;2.60;66.10
74364;DHT22;62797;49.740;10.154;2022-12-07T07:11:25;2.70;66.70
74364;DHT22;62797;49.740;10.154;2022-12-07T07:13:50;2.80;65.50
74364;DHT22;62797;49.740;10.154;2022-12-07T07:16:16;2.80;66.40
74364;DHT22;62797;49.740;10.154;2022-12-07T07:18:43;2.80;65.90
74364;DHT22;62797;49.740;10.154;2022-12-07T07:21:08;2.80;66.20
74364;DHT22;62797;49.740;10.154;2022-12-07T07:23:34;2.80;66.60
74364;DHT22;62797;49.740;10.154;2022-12-07T07:25:59;2.80;67.30
74364;DHT22;62797;49.740;10.154;2022-12-07T07:28:25;2.90;66.60
74364;DHT22;62797;49.740;10.154;2022-12-07T07:30:50;2.90;66.50
74364;DHT22;62797;49.740;10.154;2022-12-07T07:33:16;2.90;66.00
74364;DHT22;62797;49.740;10.154;2022-12-07T07:35:42;2.90;66.30
74364;DHT22;62797;49.740;10.154;2022-12-07T07:38:08;2.90;66.10
74364;DHT22;62797;49.740;10.154;2022-12-07T07:40:34;2.90;66.30
74364;DHT22;62797;49.740;10.154;2022-12-07T07:42:59;2.90;66.20
74364;DHT22;62797;49.740;10.154;2022-12-07T07:45:26;2.90;66.20
74364;DHT22;62797;49.740;10.154;2022-12-07T07:47:52;3.00;66.40
74364;DHT22;62797;49.740;10.154;2022-12-07T07:50:18;2.90;66.30
74364;DHT22;62797;49.740;10.154;2022-12-07T07:52:44;3.00;66.80
74364;DHT22;62797;49.740;10.154;2022-12-07T07:55:10;2.90;67.10
74364;DHT22;62797;49.740;10.154;2022-12-07T07:57:37;3.00;66.20
74364;DHT22;62797;49.740;10.154;2022-12-07T08:00:21;3.10;65.90
74364;DHT22;62797;49.740;10.154;2022-12-07T08:02:47;3.10;66.30
74364;DHT22;62797;49.740;10.154;2022-12-07T08:05:13;3.10;66.70
74364;DHT22;62797;49.740;10.154;2022-12-07T08:07:39;3.10;66.50
74364;DHT22;62797;49.740;10.154;2022-12-07T08:10:06;3.20;67.40
74364;DHT22;62797;49.740;10.154;2022-12-07T08:12:36;3.30;65.50
74364;DHT22;62797;49.740;10.154;2022-12-07T08:15:02;3.20;66.00
74364;DHT22;62797;49.740;10.154;2022-12-07T08:17:27;3.30;66.60
74364;DHT22;62797;49.740;10.154;2022-12-07T08:19:53;3.30;66.10
74364;DHT22;62797;49.740;10.154;2022-12-07T08:22:18;3.40;66.20
74364;DHT22;62797;49.740;10.154;2022-12-07T08:24:44;3.40;65.50
74364;DHT22;62797;49.740;10.154;2022-12-07T08:27:09;3.50;65.20
74364;DHT22;62797;49.740;10.154;2022-12-07T08:29:35;3.50;65.80
74364;DHT22;62797;49.740;10.154;2022-12-07T08:32:01;3.50;65.00
74364;DHT22;62797;49.740;10.154;2022-12-07T08:34:27;3.50;65.10
74364;DHT22;62797;49.740;10.154;2022-12-07T08:36:52;3.50;64.40
74364;DHT22;62797;49.740;10.154;2022-12-07T08:39:18;3.50;65.00
74364;DHT22;62797;49.740;10.154;2022-12-07T08:41:43;3.50;65.30
74364;DHT22;62797;49.740;10.154;2022-12-07T08:44:09;3.50;65.50
74364;DHT22;62797;49.740;10.154;2022-12-07T08:46:41;3.50;65.40
74364;DHT22;62797;49.740;10.154;2022-12-07T08:49:19;3.40;64.30
74364;DHT22;62797;49.740;10.154;2022-12-07T08:51:45;3.50;65.30
74364;DHT22;62797;49.740;10.154;2022-12-07T08:54:14;3.50;65.20
74364;DHT22;62797;49.740;10.154;2022-12-07T08:56:40;3.60;65.20
74364;DHT22;62797;49.740;10.154;2022-12-07T08:59:06;3.70;65.60
74364;DHT22;62797;49.740;10.154;2022-12-07T09:01:32;3.70;65.70
74364;DHT22;62797;49.740;10.154;2022-12-07T09:03:58;3.60;64.60
74364;DHT22;62797;49.740;10.154;2022-12-07T09:06:24;3.70;64.20
74364;DHT22;62797;49.740;10.154;2022-12-07T09:08:52;3.80;64.70
74364;DHT22;62797;49.740;10.154;2022-12-07T09:11:21;3.80;64.60
74364;DHT22;62797;49.740;10.154;2022-12-07T09:13:47;3.80;64.80
74364;DHT22;62797;49.740;10.154;2022-12-07T09:16:13;3.90;64.00
74364;DHT22;62797;49.740;10.154;2022-12-07T09:18:38;3.90;64.00
74364;DHT22;62797;49.740;10.154;2022-12-07T09:21:04;3.90;64.20
74364;DHT22;62797;49.740;10.154;2022-12-07T09:23:30;3.80;64.30
74364;DHT22;62797;49.740;10.154;2022-12-07T09:25:59;3.90;64.00
74364;DHT22;62797;49.740;10.154;2022-12-07T09:28:26;3.90;64.20
74364;DHT22;62797;49.740;10.154;2022-12-07T09:30:51;3.80;63.70
74364;DHT22;62797;49.740;10.154;2022-12-07T09:33:17;3.80;63.60
74364;DHT22;62797;49.740;10.154;2022-12-07T09:35:50;3.90;64.00
74364;DHT22;62797;49.740;10.154;2022-12-07T09:38:16;4.00;64.10
74364;DHT22;62797;49.740;10.154;2022-12-07T09:40:42;4.00;63.20
74364;DHT22;62797;49.740;10.154;2022-12-07T09:43:19;4.00;63.50
74364;DHT22;62797;49.740;10.154;2022-12-07T09:45:47;4.10;63.20
74364;DHT22;62797;49.740;10.154;2022-12-07T09:48:18;4.00;64.00
74364;DHT22;62797;49.740;10.154;2022-12-07T09:50:47;4.10;63.80
74364;DHT22;62797;49.740;10.154;2022-12-07T09:53:26;4.10;64.40
74364;DHT22;62797;49.740;10.154;2022-12-07T09:55:53;4.20;63.60
74364;DHT22;62797;49.740;10.154;2022-12-07T09:58:22;4.10;63.80
74364;DHT22;62797;49.740;10.154;2022-12-07T10:00:50;4.20;63.60
74364;DHT22;62797;49.740;10.154;2022-12-07T10:03:16;4.30;63.40
74364;DHT22;62797;49.740;10.154;2022-12-07T10:05:47;4.30;63.40
74364;DHT22;62797;49.740;10.154;2022-12-07T10:08:14;4.30;63.30
74364;DHT22;62797;49.740;10.154;2022-12-07T10:10:42;4.20;63.10
74364;DHT22;62797;49.740;10.154;2022-12-07T10:13:21;4.40;64.00
74364;DHT22;62797;49.740;10.154;2022-12-07T10:20:47;4.40;63.80
74364;DHT22;62797;49.740;10.154;2022-12-07T10:23:17;4.50;63.40
74364;DHT22;62797;49.740;10.154;2022-12-07T10:25:44;4.50;62.00
74364;DHT22;62797;49.740;10.154;2022-12-07T10:28:13;4.50;62.60
74364;DHT22;62797;49.740;10.154;2022-12-07T10:30:57;4.60;61.80
74364;DHT22;62797;49.740;10.154;2022-12-07T10:33:36;4.60;62.10
74364;DHT22;62797;49.740;10.154;2022-12-07T10:38:50;4.40;62.00
74364;DHT22;62797;49.740;10.154;2022-12-07T10:41:16;4.50;63.60
74364;DHT22;62797;49.740;10.154;2022-12-07T10:43:51;4.40;63.20
74364;DHT22;62797;49.740;10.154;2022-12-07T10:55:08;4.40;64.00
74364;DHT22;62797;49.740;10.154;2022-12-07T11:00:25;4.50;62.30
74364;DHT22;62797;49.740;10.154;2022-12-07T11:06:16;4.80;62.20
74364;DHT22;62797;49.740;10.154;2022-12-07T11:11:30;4.80;60.50
74364;DHT22;62797;49.740;10.154;2022-12-07T11:17:06;5.00;60.30
74364;DHT22;62797;49.740;10.154;2022-12-07T11:36:40;5.10;58.70
74364;DHT22;62797;49.740;10.154;2022-12-07T11:42:00;5.20;58.30
74364;DHT22;62797;49.740;10.154;2022-12-07T11:44:53;5.20;57.00
74364;DHT22;62797;49.740;10.154;2022-12-07T11:47:28;5.30;57.00
74364;DHT22;62797;49.740;10.154;2022-12-07T11:50:08;5.40;55.60
74364;DHT22;62797;49.740;10.154;2022-12-07T11:52:47;5.40;55.80
74364;DHT22;62797;49.740;10.154;2022-12-07T11:55:27;5.40;56.50
74364;DHT22;62797;49.740;10.154;2022-12-07T11:58:10;5.40;55.70
74364;DHT22;62797;49.740;10.154;2022-12-07T12:00:39;5.40;56.40
74364;DHT22;62797;49.740;10.154;2022-12-07T12:03:13;5.40;55.10
74364;DHT22;62797;49.740;10.154;2022-12-07T12:05:41;5.30;55.90
74364;DHT22;62797;49.740;10.154;2022-12-07T12:08:23;5.40;56.00
74364;DHT22;62797;49.740;10.154;2022-12-07T12:17:01;5.20;54.70
74364;DHT22;62797;49.740;10.154;2022-12-07T12:19:40;5.20;55.60
74364;DHT22;62797;49.740;10.154;2022-12-07T12:22:17;5.20;54.20
74364;DHT22;62797;49.740;10.154;2022-12-07T12:24:45;5.30;53.60
74364;DHT22;62797;49.740;10.154;2022-12-07T12:27:25;5.40;52.40
74364;DHT22;62797;49.740;10.154;2022-12-07T12:29:57;5.30;53.00
74364;DHT22;62797;49.740;10.154;2022-12-07T12:32:39;5.30;52.40
74364;DHT22;62797;49.740;10.154;2022-12-07T12:35:31;5.30;53.60
74364;DHT22;62797;49.740;10.154;2022-12-07T12:40:50;5.10;53.60
74364;DHT22;62797;49.740;10.154;2022-12-07T12:57:13;5.20;54.90
74364;DHT22;62797;49.740;10.154;2022-12-07T13:02:33;5.20;55.40
74364;DHT22;62797;49.740;10.154;2022-12-07T13:10:42;5.20;55.20
74364;DHT22;62797;49.740;10.154;2022-12-07T13:15:47;5.30;55.70
74364;DHT22;62797;49.740;10.154;2022-12-07T13:20:56;5.20;55.40
74364;DHT22;62797;49.740;10.154;2022-12-07T13:34:05;5.10;57.30
74364;DHT22;62797;49.740;10.154;2022-12-07T13:36:51;5.00;58.80
74364;DHT22;62797;49.740;10.154;2022-12-07T13:41:44;4.40;61.50
74364;DHT22;62797;49.740;10.154;2022-12-07T13:44:15;4.30;64.30
74364;DHT22;62797;49.740;10.154;2022-12-07T13:49:24;4.00;66.10
74364;DHT22;62797;49.740;10.154;2022-12-07T13:51:51;4.00;66.60
74364;DHT22;62797;49.740;10.154;2022-12-07T13:54:17;3.90;67.30
74364;DHT22;62797;49.740;10.154;2022-12-07T13:56:43;3.80;67.80
74364;DHT22;62797;49.740;10.154;2022-12-07T13:59:20;3.80;69.30
74364;DHT22;62797;49.740;10.154;2022-12-07T14:01:48;3.80;68.60
74364;DHT22;62797;49.740;10.154;2022-12-07T14:06:57;3.90;69.50
74364;DHT22;62797;49.740;10.154;2022-12-07T14:09:24;4.00;68.70
74364;DHT22;62797;49.740;10.154;2022-12-07T14:11:53;4.00;68.70
74364;DHT22;62797;49.740;10.154;2022-12-07T14:14:29;4.10;68.80
74364;DHT22;62797;49.740;10.154;2022-12-07T14:16:58;4.10;68.30
74364;DHT22;62797;49.740;10.154;2022-12-07T14:22:35;4.20;68.20
74364;DHT22;62797;49.740;10.154;2022-12-07T14:27:39;4.40;68.20
74364;DHT22;62797;49.740;10.154;2022-12-07T14:30:16;4.50;67.80
74364;DHT22;62797;49.740;10.154;2022-12-07T14:32:41;4.60;68.00
74364;DHT22;62797;49.740;10.154;2022-12-07T14:35:10;4.70;68.20
74364;DHT22;62797;49.740;10.154;2022-12-07T14:37:37;4.60;65.50
74364;DHT22;62797;49.740;10.154;2022-12-07T14:40:04;4.70;66.80
74364;DHT22;62797;49.740;10.154;2022-12-07T14:42:31;4.70;65.70
74364;DHT22;62797;49.740;10.154;2022-12-07T14:44:58;4.60;65.80
74364;DHT22;62797;49.740;10.154;2022-12-07T14:47:25;4.70;65.10
74364;DHT22;62797;49.740;10.154;2022-12-07T14:49:51;4.70;64.90
74364;DHT22;62797;49.740;10.154;2022-12-07T14:52:28;4.60;64.40
74364;DHT22;62797;49.740;10.154;2022-12-07T14:54:55;4.50;64.40
74364;DHT22;62797;49.740;10.154;2022-12-07T14:57:20;4.50;64.80
74364;DHT22;62797;49.740;10.154;2022-12-07T14:59:46;4.50;64.20
74364;DHT22;62797;49.740;10.154;2022-12-07T15:02:13;4.50;64.10
74364;DHT22;62797;49.740;10.154;2022-12-07T15:04:39;4.40;64.30
74364;DHT22;62797;49.740;10.154;2022-12-07T15:07:12;4.30;63.90
74364;DHT22;62797;49.740;10.154;2022-12-07T15:09:39;4.30;64.30
74364;DHT22;62797;49.740;10.154;2022-12-07T15:12:05;4.20;64.80
74364;DHT22;62797;49.740;10.154;2022-12-07T15:14:31;4.10;64.40
74364;DHT22;62797;49.740;10.154;2022-12-07T15:16:56;3.90;66.00
74364;DHT22;62797;49.740;10.154;2022-12-07T15:19:23;3.90;65.90
74364;DHT22;62797;49.740;10.154;2022-12-07T15:21:51;3.70;66.20
74364;DHT22;62797;49.740;10.154;2022-12-07T15:24:17;3.70;67.10
74364;DHT22;62797;49.740;10.154;2022-12-07T15:26:43;3.60;66.70
74364;DHT22;62797;49.740;10.154;2022-12-07T15:29:09;3.60;67.00
74364;DHT22;62797;49.740;10.154;2022-12-07T15:31:35;3.50;67.10
74364;DHT22;62797;49.740;10.154;2022-12-07T15:34:01;3.40;67.30
74364;DHT22;62797;49.740;10.154;2022-12-07T15:36:28;3.50;67.40
74364;DHT22;62797;49.740;10.154;2022-12-07T15:38:55;3.30;66.90
74364;DHT22;62797;49.740;10.154;2022-12-07T15:41:21;3.30;67.40
74364;DHT22;62797;49.740;10.154;2022-12-07T15:43:47;3.30;67.60
74364;DHT22;62797;49.740;10.154;2022-12-07T15:46:32;3.20;67.60
74364;DHT22;62797;49.740;10.154;2022-12-07T15:48:58;3.20;67.60
74364;DHT22;62797;49.740;10.154;2022-12-07T15:51:24;3.10;68.00
74364;DHT22;62797;49.740;10.154;2022-12-07T15:53:50;3.10;67.90
74364;DHT22;62797;49.740;10.154;2022-12-07T15:56:15;3.10;68.60
74364;DHT22;62797;49.740;10.154;2022-12-07T15:58:41;3.10;67.60
74364;DHT22;62797;49.740;10.154;2022-12-07T16:01:11;3.10;68.30
74364;DHT22;62797;49.740;10.154;2022-12-07T16:03:37;3.20;67.60
74364;DHT22;62797;49.740;10.154;2022-12-07T16:06:02;3.20;68.10
74364;DHT22;62797;49.740;10.154;2022-12-07T16:08:28;3.20;67.50
74364;DHT22;62797;49.740;10.154;2022-12-07T16:10:53;3.20;68.30
74364;DHT22;62797;49.740;10.154;2022-12-07T16:13:19;3.20;67.80
74364;DHT22;62797;49.740;10.154;2022-12-07T16:15:44;3.20;67.70
74364;DHT22;62797;49.740;10.154;2022-12-07T16:18:10;3.20;67.60
74364;DHT22;62797;49.740;10.154;2022-12-07T16:20:35;3.20;67.90
74364;DHT22;62797;49.740;10.154;2022-12-07T16:23:01;3.30;67.70
74364;DHT22;62797;49.740;10.154;2022-12-07T16:25:27;3.30;67.90
74364;DHT22;62797;49.740;10.154;2022-12-07T16:27:53;3.30;68.30
74364;DHT22;62797;49.740;10.154;2022-12-07T16:30:19;3.30;68.40
74364;DHT22;62797;49.740;10.154;2022-12-07T16:32:44;3.30;68.40
74364;DHT22;62797;49.740;10.154;2022-12-07T16:35:10;3.30;68.50
74364;DHT22;62797;49.740;10.154;2022-12-07T16:37:36;3.40;68.40
74364;DHT22;62797;49.740;10.154;2022-12-07T16:40:02;3.40;68.60
74364;DHT22;62797;49.740;10.154;2022-12-07T16:42:32;3.40;68.40
74364;DHT22;62797;49.740;10.154;2022-12-07T16:44:58;3.40;68.80
74364;DHT22;62797;49.740;10.154;2022-12-07T16:47:23;3.40;69.10
74364;DHT22;62797;49.740;10.154;2022-12-07T16:49:49;3.30;69.70
74364;DHT22;62797;49.740;10.154;2022-12-07T16:52:14;3.40;70.00
74364;DHT22;62797;49.740;10.154;2022-12-07T16:54:40;3.30;69.70
74364;DHT22;62797;49.740;10.154;2022-12-07T16:57:06;3.30;68.70
74364;DHT22;62797;49.740;10.154;2022-12-07T16:59:31;3.20;69.00
74364;DHT22;62797;49.740;10.154;2022-12-07T17:01:57;3.10;69.50
74364;DHT22;62797;49.740;10.154;2022-12-07T17:04:22;3.00;70.00
74364;DHT22;62797;49.740;10.154;2022-12-07T17:06:48;3.00;70.70
74364;DHT22;62797;49.740;10.154;2022-12-07T17:09:13;3.00;70.90
74364;DHT22;62797;49.740;10.154;2022-12-07T17:11:39;2.90;70.60
74364;DHT22;62797;49.740;10.154;2022-12-07T17:14:08;2.90;70.40
74364;DHT22;62797;49.740;10.154;2022-12-07T17:16:52;3.00;70.60
74364;DHT22;62797;49.740;10.154;2022-12-07T17:19:18;3.00;69.50
74364;DHT22;62797;49.740;10.154;2022-12-07T17:21:43;3.00;68.90
74364;DHT22;62797;49.740;10.154;2022-12-07T17:24:10;3.00;69.50
74364;DHT22;62797;49.740;10.154;2022-12-07T17:26:40;3.00;70.10
74364;DHT22;62797;49.740;10.154;2022-12-07T17:29:07;3.00;69.80
74364;DHT22;62797;49.740;10.154;2022-12-07T17:31:34;3.10;69.90
74364;DHT22;62797;49.740;10.154;2022-12-07T17:34:00;3.10;69.70
74364;DHT22;62797;49.740;10.154;2022-12-07T17:36:28;3.00;70.00
74364;DHT22;62797;49.740;10.154;2022-12-07T17:38:54;3.00;70.00
74364;DHT22;62797;49.740;10.154;2022-12-07T17:41:23;3.00;69.80
74364;DHT22;62797;49.740;10.154;2022-12-07T17:44:13;2.90;69.90
74364;DHT22;62797;49.740;10.154;2022-12-07T17:46:39;2.90;70.50
74364;DHT22;62797;49.740;10.154;2022-12-07T17:49:05;2.90;70.40
74364;DHT22;62797;49.740;10.154;2022-12-07T17:51:31;2.90;71.00
74364;DHT22;62797;49.740;10.154;2022-12-07T17:54:16;2.90;70.70
74364;DHT22;62797;49.740;10.154;2022-12-07T17:56:41;2.90;70.70